CheckWX is a tool to help pilots better visualize weather data.  It is not intended as a substitute for an official pre-flight weather briefing.

15:45:55 UTC

GEML TAF
Melilla Airport
Melilla, Spain
TAF GEML 291400Z 2915/3015 VRB03KT CAVOK TX19/3013Z TN09/3006Z BECMG 3007/3009 27010KT

Jan-29@
15:00 UTC

Jan-29 @ 15:00 UTC

Jan-30@
07:00 UTC

Jan-30 @ 07:00 UTC

TAF GEML 291400Z 2915/3015 VRB03KT CAVOK TX19/3013Z TN09/3006Z
Wind
  • Variable at 3 KTS
Cloud Levels
  • No significant clouds

Jan-30@
07:00 UTC

Jan-30 @ 07:00 UTC

Jan-30@
15:00 UTC

Jan-30 @ 15:00 UTC

BECMG 3007/3009 27010KT

Becoming

Becoming Conditions expected by Thu, Jan 30, 2020 @ 09:00 UTC

Wind
  • 270° at 10 KTS
Cloud Levels
  • No significant clouds